Time;durP1;ratioP1;P1;durP2;ratioP2;P2;SDS_P1;SDS_P2;PMS_P1;PMS_P2;Temp;Humidity;BMP_temperature;BMP_pressure;BME280_temperature;BME280_humidity;BME280_pressure;Samples;Min_cycle;Max_cycle;Signal;HPM_P1;HPM_P2
2022/11/13 00:08:13;;;;;;;27.37;11.80;;;;;;;8.83;98.48;101425.59;32016815;27;20054;-78
2022/11/13 00:23:15;;;;;;;30.37;14.00;;;;;;;8.70;98.35;101410.81;32008691;27;20404;-77
2022/11/13 00:38:16;;;;;;;24.27;11.33;;;;;;;8.58;98.23;101414.53;32010015;27;20060;-78
2022/11/13 00:53:18;;;;;;;22.87;9.43;;;;;;;8.74;96.78;101398.09;32003195;27;20092;-76
2022/11/13 01:08:20;;;;;;;22.63;9.63;;;;;;;8.72;96.06;101381.44;31995816;27;20058;-77
2022/11/13 01:23:22;;;;;;;26.47;10.07;;;;;;;8.83;94.87;101360.63;32006740;27;20050;-76
2022/11/13 01:38:25;;;;;;;20.23;9.17;;;;;;;8.87;95.08;101356.78;31979440;27;20099;-77
2022/11/13 01:53:28;;;;;;;21.03;10.13;;;;;;;8.89;95.99;101351.78;31988899;27;20046;-78
2022/11/13 02:08:30;;;;;;;20.77;10.43;;;;;;;8.79;97.51;101344.34;31995561;27;20047;-77
2022/11/13 02:23:56;;;;;;;22.83;9.90;;;;;;;8.85;98.17;101342.06;31998084;27;20142;-77
2022/11/13 02:39:02;;;;;;;18.07;9.23;;;;;;;8.79;100.00;101348.97;31994091;27;20043;-76
2022/11/13 02:54:04;;;;;;;24.30;10.73;;;;;;;8.78;100.00;101348.19;31986839;27;20108;-76
2022/11/13 03:09:06;;;;;;;20.23;8.47;;;;;;;8.84;100.00;101325.03;32024450;27;20065;-77
2022/11/13 03:24:08;;;;;;;20.23;9.40;;;;;;;8.92;100.00;101330.50;32009519;27;20046;-77
2022/11/13 03:39:10;;;;;;;15.80;8.00;;;;;;;8.89;100.00;101321.22;31994522;27;20059;-77
2022/11/13 03:54:12;;;;;;;18.90;9.20;;;;;;;8.91;100.00;101310.00;32000149;27;20054;-78
2022/11/13 04:09:14;;;;;;;21.23;9.73;;;;;;;8.97;100.00;101306.56;31917709;27;20047;-75
2022/11/13 04:24:16;;;;;;;18.73;9.17;;;;;;;9.04;100.00;101293.06;31887914;27;20538;-76
2022/11/13 04:39:18;;;;;;;20.63;9.53;;;;;;;9.09;100.00;101291.91;31864648;27;20104;-76
2022/11/13 04:54:20;;;;;;;20.60;9.53;;;;;;;9.13;100.00;101288.06;31879450;27;20374;-77
2022/11/13 05:09:29;;;;;;;20.03;9.03;;;;;;;9.21;100.00;101294.31;31945979;27;20142;-78
2022/11/13 05:24:31;;;;;;;20.43;9.07;;;;;;;9.26;100.00;101302.06;31977291;27;20042;-77
2022/11/13 05:39:33;;;;;;;23.60;10.10;;;;;;;9.28;100.00;101316.00;32001934;27;20076;-78
2022/11/13 05:54:35;;;;;;;22.50;10.30;;;;;;;9.32;100.00;101324.94;32001920;27;20055;-76
2022/11/13 06:09:37;;;;;;;27.27;9.70;;;;;;;9.27;100.00;101317.16;31998270;27;20062;-80
2022/11/13 06:24:38;;;;;;;21.50;9.63;;;;;;;9.45;100.00;101309.09;31993766;27;20099;-77
2022/11/13 06:39:40;;;;;;;21.47;9.37;;;;;;;9.54;100.00;101296.00;31994559;27;20102;-77
2022/11/13 06:54:42;;;;;;;18.53;8.53;;;;;;;9.61;100.00;101306.09;32021487;27;20042;-78
2022/11/13 07:09:44;;;;;;;28.23;14.63;;;;;;;9.78;100.00;101306.13;32019972;27;20061;-78
2022/11/13 07:24:46;;;;;;;27.97;13.07;;;;;;;9.87;100.00;101303.06;32014211;27;20107;-77
2022/11/13 07:39:48;;;;;;;18.77;9.73;;;;;;;10.13;100.00;101288.38;32019682;27;20047;-78
2022/11/13 07:54:50;;;;;;;22.23;12.27;;;;;;;10.30;100.00;101287.66;32006908;27;20080;-78
2022/11/13 08:09:53;;;;;;;25.77;11.63;;;;;;;10.45;100.00;101291.13;32012691;27;20055;-77
2022/11/13 08:24:55;;;;;;;16.10;7.93;;;;;;;10.68;100.00;101296.16;31999844;27;20552;-77
2022/11/13 08:39:57;;;;;;;16.03;7.83;;;;;;;10.81;99.12;101283.72;32002238;27;20531;-78
2022/11/13 08:54:59;;;;;;;13.43;7.70;;;;;;;10.98;97.66;101288.34;31995767;27;20055;-78
2022/11/13 09:10:01;;;;;;;13.93;8.07;;;;;;;11.15;96.82;101254.91;31995340;27;20111;-78
2022/11/13 09:25:03;;;;;;;10.40;6.07;;;;;;;11.20;96.32;101246.34;31993376;27;20552;-78
2022/11/13 09:40:16;;;;;;;11.90;5.93;;;;;;;11.34;95.54;101248.22;31974328;27;20043;-77
2022/11/13 09:55:27;;;;;;;12.37;6.47;;;;;;;11.49;95.66;101240.78;31989958;27;20078;-77
2022/11/13 10:10:42;;;;;;;11.20;5.73;;;;;;;11.65;94.88;101221.25;31997580;27;20051;-78
2022/11/13 10:25:44;;;;;;;10.00;3.63;;;;;;;11.82;91.24;101221.16;31985629;27;20070;-77
2022/11/13 10:40:46;;;;;;;6.93;3.67;;;;;;;12.17;87.56;101227.53;31997655;27;20050;-78
2022/11/13 10:55:53;;;;;;;3.63;2.50;;;;;;;12.81;81.08;101207.81;31994334;27;20056;-78
2022/11/13 11:26:43;;;;;;;4.17;2.80;;;;;;;13.28;75.85;101160.53;32004741;27;20161;-79
2022/11/13 11:41:56;;;;;;;5.13;2.60;;;;;;;15.47;65.46;101131.50;32012773;27;20504;-77
2022/11/13 11:57:18;;;;;;;3.10;2.63;;;;;;;17.02;58.98;101126.59;32004537;27;20050;-80
2022/11/13 12:12:51;;;;;;;4.22;2.90;;;;;;;16.87;55.74;101119.25;31996014;27;20062;-79
2022/11/13 12:28:04;;;;;;;3.10;2.47;;;;;;;14.21;64.89;101126.28;32004589;27;20054;-77
2022/11/13 12:43:50;;;;;;;3.50;2.30;;;;;;;13.36;69.15;101122.25;31998769;27;20104;-77
2022/11/13 12:59:25;;;;;;;5.80;3.17;;;;;;;12.92;71.77;101115.84;31983537;27;20062;-80
2022/11/13 13:14:53;;;;;;;5.00;3.03;;;;;;;12.71;73.32;101116.09;32001021;27;20046;-77
2022/11/13 13:29:56;;;;;;;5.20;3.30;;;;;;;12.49;74.33;101097.28;31992373;27;20051;-78
2022/11/13 13:45:22;;;;;;;5.30;3.20;;;;;;;12.31;75.48;101107.59;31994910;27;20055;-78
2022/11/13 14:00:30;;;;;;;5.03;3.63;;;;;;;12.11;76.44;101106.63;32008981;27;20405;-78
2022/11/13 14:15:34;;;;;;;5.63;4.07;;;;;;;11.80;78.39;101120.16;32008951;27;20051;-81
2022/11/13 14:30:36;;;;;;;5.30;3.77;;;;;;;11.53;80.18;101124.63;32004012;27;20054;-80
2022/11/13 14:45:38;;;;;;;7.40;3.97;;;;;;;11.31;81.74;101109.63;32008280;27;20057;-79
2022/11/13 15:00:42;;;;;;;7.97;4.50;;;;;;;11.11;82.49;101112.81;31994223;27;20051;-80
2022/11/13 15:15:44;;;;;;;7.07;4.93;;;;;;;10.89;83.62;101127.69;31896449;27;20100;-77
2022/11/13 15:30:46;;;;;;;16.13;5.23;;;;;;;10.79;84.29;101134.75;31893934;27;20055;-78
2022/11/13 15:45:57;;;;;;;9.97;5.23;;;;;;;10.78;84.42;101143.28;31874273;27;20059;-79
2022/11/13 16:00:59;;;;;;;8.93;5.57;;;;;;;10.64;85.40;101154.16;31906028;27;20063;-78
2022/11/13 16:16:04;;;;;;;12.93;6.40;;;;;;;10.52;85.25;101148.00;31972897;27;20553;-78
2022/11/13 16:31:06;;;;;;;9.70;6.40;;;;;;;10.39;85.99;101149.63;31971303;27;20050;-79
2022/11/13 16:46:18;;;;;;;10.83;6.97;;;;;;;10.22;86.90;101150.41;31988646;27;20046;-79
2022/11/13 17:01:24;;;;;;;29.83;14.30;;;;;;;10.20;87.47;101148.06;32011350;27;20170;-82
2022/11/13 17:16:30;;;;;;;10.43;5.93;;;;;;;10.17;87.84;101142.63;31998913;27;20050;-78
2022/11/13 17:31:32;;;;;;;10.60;5.80;;;;;;;10.11;87.36;101149.63;32004193;27;20659;-78
2022/11/13 17:46:34;;;;;;;13.53;6.97;;;;;;;9.99;88.74;101158.91;32001829;27;20051;-78
2022/11/13 18:01:36;;;;;;;16.23;7.50;;;;;;;9.83;89.77;101183.72;31992343;27;20046;-78
2022/11/13 18:16:39;;;;;;;11.50;6.17;;;;;;;9.62;90.61;101183.72;31983265;27;20046;-79
2022/11/13 18:31:40;;;;;;;16.23;7.60;;;;;;;9.57;90.99;101187.56;31992934;27;20476;-79
2022/11/13 18:46:42;;;;;;;21.00;11.73;;;;;;;9.65;90.47;101193.78;31976023;27;20576;-79
2022/11/13 19:01:44;;;;;;;12.20;7.47;;;;;;;9.52;91.58;101184.44;31992154;27;20560;-80
2022/11/13 19:16:47;;;;;;;40.77;20.00;;;;;;;9.49;92.41;101190.63;31999472;27;20096;-79
2022/11/13 19:31:49;;;;;;;17.13;7.43;;;;;;;9.54;93.00;101190.28;31992562;27;20043;-80
2022/11/13 19:46:52;;;;;;;15.07;7.00;;;;;;;9.41;93.11;101189.09;32009681;27;20412;-77
2022/11/13 20:01:54;;;;;;;13.10;7.00;;;;;;;9.45;93.56;101174.38;32001426;27;20543;-78
2022/11/13 20:16:56;;;;;;;17.17;8.20;;;;;;;9.36;94.03;101157.72;32021775;27;20054;-79
2022/11/13 20:31:59;;;;;;;13.33;7.77;;;;;;;9.23;94.88;101151.88;32015350;27;20054;-80
2022/11/13 20:47:01;;;;;;;17.40;7.67;;;;;;;9.06;96.07;101157.25;31995282;27;20103;-80
2022/11/13 21:02:03;;;;;;;16.03;7.20;;;;;;;8.97;96.11;101157.63;31957464;27;20476;-78
2022/11/13 21:17:05;;;;;;;15.90;9.23;;;;;;;8.82;96.98;101156.75;32006953;27;20055;-78
2022/11/13 21:32:07;;;;;;;17.63;8.23;;;;;;;8.66;97.13;101169.06;31996260;27;20058;-78
2022/11/13 21:47:12;;;;;;;16.37;9.00;;;;;;;8.64;97.28;101171.38;32004441;27;20476;-76
2022/11/13 22:02:14;;;;;;;15.57;7.93;;;;;;;8.53;97.21;101163.19;31991890;27;20051;-78
2022/11/13 22:17:16;;;;;;;17.83;8.47;;;;;;;8.44;97.75;101165.47;32000194;27;20119;-77
2022/11/13 22:32:18;;;;;;;19.20;9.70;;;;;;;8.27;97.37;101172.28;31998254;27;20099;-76
2022/11/13 22:47:20;;;;;;;20.90;8.40;;;;;;;8.27;98.14;101180.38;31959631;27;20053;-78
2022/11/13 23:02:22;;;;;;;18.93;8.33;;;;;;;8.31;97.62;101173.06;31968837;27;20108;-77
2022/11/13 23:17:24;;;;;;;18.13;8.43;;;;;;;8.37;97.26;101171.59;32002081;27;20050;-79
2022/11/13 23:32:26;;;;;;;17.43;8.50;;;;;;;8.32;96.98;101171.94;32010503;27;20043;-76
2022/11/13 23:47:28;;;;;;;18.93;8.93;;;;;;;8.31;97.36;101194.72;31988860;27;20099;-75
